createdAt,value
2022-08-05T00:00:46.223Z,100668.78
2022-08-05T00:03:15.596Z,100667.75
2022-08-05T00:06:06.385Z,100667.59
2022-08-05T00:08:34.625Z,100669.34
2022-08-05T00:11:01.334Z,100663.69
2022-08-05T00:13:38.295Z,100658.78
2022-08-05T00:16:06.306Z,100662.19
2022-08-05T00:18:32.859Z,100666.19
2022-08-05T00:20:57.084Z,100678.25
2022-08-05T00:23:44.340Z,100675.97
2022-08-05T00:26:07.336Z,100667.38
2022-08-05T00:28:31.049Z,100673.53
2022-08-05T00:30:56.755Z,100660.69
2022-08-05T00:34:55.523Z,100669.38
2022-08-05T00:36:16.530Z,100661.78
2022-08-05T00:38:55.849Z,100663.09
2022-08-05T00:41:52.165Z,100673.44
2022-08-05T00:44:16.694Z,100675.16
2022-08-05T00:46:42.634Z,100674.31
2022-08-05T00:49:07.802Z,100676.47
2022-08-05T00:51:50.559Z,100709.66
2022-08-05T00:54:15.746Z,100734.59
2022-08-05T00:56:47.061Z,100703.66
2022-08-05T00:59:15.358Z,100694.34
2022-08-05T01:01:42.637Z,100704.88
2022-08-05T01:04:14.253Z,100712.00
2022-08-05T01:06:39.392Z,100713.69
2022-08-05T01:09:06.303Z,100703.56
2022-08-05T01:11:37.217Z,100717.94
2022-08-05T01:14:15.346Z,100720.44
2022-08-05T01:16:47.252Z,100723.22
2022-08-05T01:19:56.470Z,100716.03
2022-08-05T01:22:41.975Z,100706.56
2022-08-05T01:25:53.513Z,100716.44
2022-08-05T01:28:28.353Z,100719.63
2022-08-05T01:30:58.028Z,100721.53
2022-08-05T01:33:26.330Z,100713.28
2022-08-05T01:35:53.262Z,100729.28
2022-08-05T01:38:27.016Z,100726.75
2022-08-05T01:40:55.757Z,100716.25
2022-08-05T01:43:24.118Z,100726.38
2022-08-05T01:45:56.111Z,100730.81
2022-08-05T01:48:22.284Z,100711.41
2022-08-05T01:50:50.980Z,100700.19
2022-08-05T01:53:54.993Z,100703.56
2022-08-05T01:56:04.923Z,100711.81
2022-08-05T01:58:41.070Z,100711.97
2022-08-05T02:01:16.139Z,100701.00
2022-08-05T02:03:50.381Z,100699.78
2022-08-05T02:06:37.825Z,100704.00
2022-08-05T02:08:59.411Z,100718.56
2022-08-05T02:11:24.112Z,100716.66
2022-08-05T02:14:12.490Z,100706.53
2022-08-05T02:16:46.903Z,100705.69
2022-08-05T02:19:27.232Z,100700.66
2022-08-05T02:21:57.380Z,100691.38
2022-08-05T02:24:29.251Z,100692.19
2022-08-05T02:26:57.888Z,100698.91
2022-08-05T02:29:59.966Z,100703.75
2022-08-05T02:32:23.913Z,100705.69
2022-08-05T02:34:54.933Z,100715.81
2022-08-05T02:37:20.578Z,100713.28
2022-08-05T02:39:47.725Z,100718.53
2022-08-05T02:42:25.827Z,100706.91
2022-08-05T02:44:52.728Z,100713.69
2022-08-05T02:47:18.723Z,100704.41
2022-08-05T02:49:44.571Z,100698.09
2022-08-05T02:52:25.793Z,100697.69
2022-08-05T02:54:54.589Z,100706.75
2022-08-05T02:58:11.823Z,100715.84
2022-08-05T03:00:06.841Z,100710.75
2022-08-05T03:02:36.645Z,100708.69
2022-08-05T03:05:01.308Z,100700.50
2022-08-05T03:08:00.670Z,100705.72
2022-08-05T03:10:13.406Z,100701.91
2022-08-05T03:12:39.894Z,100693.50
2022-08-05T03:15:06.984Z,100689.66
2022-08-05T03:17:34.400Z,100682.53
2022-08-05T03:20:07.128Z,100689.03
2022-08-05T03:22:34.113Z,100681.66
2022-08-05T03:25:02.097Z,100676.16
2022-08-05T03:27:57.957Z,100671.09
2022-08-05T03:30:20.877Z,100674.47
2022-08-05T03:32:56.460Z,100666.88
2022-08-05T03:35:20.540Z,100677.41
2022-08-05T03:37:46.002Z,100670.69
2022-08-05T03:40:13.159Z,100673.66
2022-08-05T03:42:41.583Z,100672.31
2022-08-05T03:45:22.057Z,100681.03
2022-08-05T03:47:46.692Z,100678.69
2022-08-05T03:50:14.610Z,100690.72
2022-08-05T03:55:50.834Z,100696.81
2022-08-05T03:56:04.593Z,100693.47
2022-08-05T03:58:28.938Z,100687.13
2022-08-05T04:00:54.691Z,100682.03
2022-08-05T04:03:28.594Z,100686.94
2022-08-05T04:05:54.731Z,100688.91
2022-08-05T04:08:34.712Z,100689.53
2022-08-05T04:11:01.060Z,100702.78
2022-08-05T04:13:25.553Z,100709.09
2022-08-05T04:16:03.353Z,100717.09
2022-08-05T04:18:29.019Z,100712.91
2022-08-05T04:20:59.095Z,100713.72
2022-08-05T04:24:04.910Z,100708.22
2022-08-05T04:26:09.220Z,100713.31
2022-08-05T04:28:37.372Z,100712.03
2022-08-05T04:31:15.116Z,100712.66
2022-08-05T04:34:19.341Z,100706.09
2022-08-05T04:36:46.610Z,100702.88
2022-08-05T04:39:08.906Z,100704.38
2022-08-05T04:41:37.192Z,100691.25
2022-08-05T04:44:02.501Z,100692.47
2022-08-05T04:46:33.572Z,100677.97
2022-08-05T04:48:58.734Z,100681.69
2022-08-05T04:51:24.083Z,100682.63
2022-08-05T04:53:48.500Z,100684.16
2022-08-05T04:56:33.742Z,100692.06
2022-08-05T04:58:56.045Z,100698.94
2022-08-05T05:02:05.970Z,100705.81
2022-08-05T05:04:04.688Z,100700.44
2022-08-05T05:06:39.000Z,100707.59
2022-08-05T05:09:08.017Z,100705.13
2022-08-05T05:11:41.593Z,100700.59
2022-08-05T05:14:16.319Z,100708.84
2022-08-05T05:16:40.071Z,100711.47
2022-08-05T05:19:18.671Z,100726.16
2022-08-05T05:21:44.759Z,100755.09
2022-08-05T05:24:10.409Z,100760.03
2022-08-05T05:26:34.954Z,100774.88
2022-08-05T05:28:59.332Z,100790.47
2022-08-05T05:31:23.277Z,100783.94
2022-08-05T05:33:59.697Z,100783.78
2022-08-05T05:36:25.612Z,100780.09
2022-08-05T05:38:54.033Z,100782.06
2022-08-05T05:41:18.520Z,100790.72
2022-08-05T05:43:56.872Z,100798.97
2022-08-05T05:46:24.180Z,100798.19
2022-08-05T05:48:49.172Z,100801.75
2022-08-05T05:51:15.587Z,100800.03
2022-08-05T05:53:54.323Z,100821.72
2022-08-05T05:56:26.200Z,100841.56
2022-08-05T05:58:57.217Z,100867.06
2022-08-05T06:01:30.374Z,100882.56
2022-08-05T06:04:03.938Z,100869.31
2022-08-05T06:06:31.029Z,100874.13
2022-08-05T06:08:55.200Z,100864.88
2022-08-05T06:11:19.315Z,100869.59
2022-08-05T06:13:50.533Z,100858.69
2022-08-05T06:16:28.192Z,100870.78
2022-08-05T06:18:55.831Z,100892.00
2022-08-05T06:21:23.871Z,100899.34
2022-08-05T06:24:00.085Z,100901.59
2022-08-05T06:26:25.436Z,100894.75
2022-08-05T06:28:57.094Z,100900.47
2022-08-05T06:31:22.028Z,100901.66
2022-08-05T06:34:07.263Z,100890.19
2022-08-05T06:36:30.015Z,100876.78
2022-08-05T06:39:13.847Z,100875.97
2022-08-05T06:41:41.287Z,100883.72
2022-08-05T06:44:06.820Z,100870.69
2022-08-05T06:46:30.727Z,100876.78
2022-08-05T06:48:58.856Z,100875.13
2022-08-05T06:51:29.084Z,100857.63
2022-08-05T06:53:54.088Z,100859.97
2022-08-05T06:56:26.313Z,100858.72
2022-08-05T06:58:50.684Z,100860.81
2022-08-05T07:01:15.863Z,100863.66
2022-08-05T07:03:44.880Z,100854.41
2022-08-05T07:06:14.422Z,100853.09
2022-08-05T07:08:39.015Z,100863.91
2022-08-05T07:11:06.229Z,100883.59
2022-08-05T07:13:59.839Z,100884.31
2022-08-05T07:18:01.402Z,100888.53
2022-08-05T07:20:05.819Z,100887.75
2022-08-05T07:22:10.688Z,100911.16
2022-08-05T07:24:43.721Z,100930.22
2022-08-05T07:27:16.049Z,100946.16
2022-08-05T07:30:23.909Z,100940.22
2022-08-05T07:32:26.291Z,100937.19
2022-08-05T07:34:50.187Z,100909.16
2022-08-05T07:37:21.872Z,100913.00
2022-08-05T07:40:27.050Z,100910.03
2022-08-05T07:42:33.776Z,100908.03
2022-08-05T07:44:57.796Z,100893.31
2022-08-05T07:47:25.827Z,100894.25
2022-08-05T07:49:54.216Z,100891.72
2022-08-05T07:52:18.419Z,100896.31
2022-08-05T07:54:47.625Z,100890.97
2022-08-05T07:57:50.581Z,100891.41
2022-08-05T07:59:57.788Z,100899.78
2022-08-05T08:02:31.241Z,100884.84
2022-08-05T08:05:12.533Z,100870.69
2022-08-05T08:07:39.425Z,100884.81
2022-08-05T08:10:03.768Z,100889.16
2022-08-05T08:12:37.959Z,100870.88
2022-08-05T08:15:15.842Z,100868.91
2022-08-05T08:17:46.261Z,100864.88
2022-08-05T08:20:42.795Z,100864.34
2022-08-05T08:23:03.299Z,100855.19
2022-08-05T08:26:00.031Z,100863.50
2022-08-05T08:28:18.779Z,100863.88
2022-08-05T08:30:56.868Z,100869.09
2022-08-05T08:33:22.776Z,100893.84
2022-08-05T08:35:52.691Z,100894.25
2022-08-05T08:38:18.247Z,100895.28
2022-08-05T08:41:01.099Z,100891.25
2022-08-05T08:45:17.009Z,100906.53
2022-08-05T08:46:15.645Z,100902.94
2022-08-05T08:49:06.077Z,100900.91
2022-08-05T08:52:03.127Z,100916.47
2022-08-05T08:54:17.556Z,100920.19
2022-08-05T08:56:47.907Z,100940.06
2022-08-05T08:59:19.333Z,100950.31
2022-08-05T09:01:44.929Z,100954.28
2022-08-05T09:04:23.185Z,100963.75
2022-08-05T09:06:54.565Z,100951.28
2022-08-05T09:09:18.373Z,100956.09
2022-08-05T09:11:53.091Z,100952.88
2022-08-05T09:14:57.953Z,100959.84
2022-08-05T09:17:09.448Z,100955.56
2022-08-05T09:20:01.826Z,100959.34
2022-08-05T09:22:31.810Z,100957.09
2022-08-05T09:25:00.423Z,100956.84
2022-08-05T09:28:04.081Z,100959.13
2022-08-05T09:30:19.122Z,100955.22
2022-08-05T09:32:47.376Z,100956.66
2022-08-05T09:35:26.303Z,100940.00
2022-08-05T09:38:16.459Z,100933.28
2022-08-05T09:40:51.857Z,100943.56
2022-08-05T09:43:40.588Z,100950.59
2022-08-05T09:46:11.975Z,100952.88
2022-08-05T09:48:39.716Z,100933.28
2022-08-05T09:51:15.352Z,100929.22
2022-08-05T09:53:54.327Z,100895.84
2022-08-05T09:56:27.092Z,100878.44
2022-08-05T09:59:04.093Z,100877.84
2022-08-05T10:01:32.595Z,100875.94
2022-08-05T10:04:00.434Z,100874.72
2022-08-05T10:06:25.821Z,100869.84
2022-08-05T10:08:50.291Z,100883.34
2022-08-05T10:11:18.968Z,100899.22
2022-08-05T10:13:47.836Z,100886.13
2022-08-05T10:16:33.975Z,100881.69
2022-08-05T10:18:58.489Z,100924.66
2022-08-05T10:21:23.020Z,100923.25
2022-08-05T10:23:59.375Z,100909.56
2022-08-05T10:26:32.759Z,100914.59
2022-08-05T10:28:57.798Z,100929.88
2022-08-05T10:32:53.603Z,100934.97
2022-08-05T10:34:08.144Z,100940.66
2022-08-05T10:36:32.190Z,100940.75
2022-08-05T10:39:10.305Z,100944.41
2022-08-05T10:41:47.805Z,100937.41
2022-08-05T10:44:15.012Z,100937.03
2022-08-05T10:46:50.945Z,100944.03
2022-08-05T10:49:18.647Z,100943.41
2022-08-05T10:52:00.237Z,100947.28
2022-08-05T10:54:56.786Z,100934.53
2022-08-05T10:57:31.701Z,100933.47
2022-08-05T11:00:19.842Z,100933.16
2022-08-05T11:03:24.419Z,100931.66
2022-08-05T11:06:15.450Z,100924.44
2022-08-05T11:09:16.723Z,100928.81
2022-08-05T11:11:52.811Z,100936.53
2022-08-05T11:14:57.886Z,100934.56
2022-08-05T11:17:58.705Z,100930.31
2022-08-05T11:20:41.756Z,100937.47
2022-08-05T11:24:04.787Z,100937.59
2022-08-05T11:26:28.857Z,100933.34
2022-08-05T11:29:06.854Z,100925.50
2022-08-05T11:31:58.660Z,100935.28
2022-08-05T11:34:38.485Z,100944.91
2022-08-05T11:37:02.569Z,100940.19
2022-08-05T11:39:55.259Z,100938.41
2022-08-05T11:42:28.018Z,100950.50
2022-08-05T11:44:56.336Z,100941.69
2022-08-05T11:47:49.340Z,100940.09
2022-08-05T11:50:09.983Z,100947.97
2022-08-05T11:52:38.289Z,100944.28
2022-08-05T11:55:07.603Z,100938.94
2022-08-05T11:57:39.331Z,100937.53
2022-08-05T12:00:30.421Z,100945.00
2022-08-05T12:02:54.385Z,100934.66
2022-08-05T12:05:36.382Z,100944.66
2022-08-05T12:08:11.254Z,100942.72
2022-08-05T12:10:43.839Z,100939.88
2022-08-05T12:13:15.491Z,100936.69
2022-08-05T12:15:45.342Z,100944.84
2022-08-05T12:18:20.559Z,100946.91
2022-08-05T12:20:44.543Z,100936.94
2022-08-05T12:23:10.483Z,100945.72
2022-08-05T12:25:50.343Z,100948.31
2022-08-05T12:28:15.089Z,100952.25
2022-08-05T12:30:45.715Z,100939.88
2022-08-05T12:33:27.806Z,100944.03
2022-08-05T12:35:53.999Z,100933.81
2022-08-05T12:38:18.016Z,100936.22
2022-08-05T12:40:46.286Z,100933.50
2022-08-05T12:43:10.037Z,100940.78
2022-08-05T12:45:42.724Z,100948.34
2022-08-05T12:48:27.369Z,100944.25
2022-08-05T12:52:10.299Z,100956.03
2022-08-05T12:54:03.325Z,100961.84
2022-08-05T12:56:35.405Z,100956.25
2022-08-05T12:59:21.121Z,100952.78
2022-08-05T13:02:07.354Z,100954.44
2022-08-05T13:04:34.752Z,100952.25
2022-08-05T13:07:10.931Z,100952.09
2022-08-05T13:09:41.268Z,100952.56
2022-08-05T13:12:16.101Z,100954.47
2022-08-05T13:14:42.617Z,100951.00
2022-08-05T13:17:11.487Z,100941.25
2022-08-05T13:19:51.631Z,100957.13
2022-08-05T13:22:28.503Z,100954.06
2022-08-05T13:24:58.113Z,100961.72
2022-08-05T13:27:37.458Z,100957.53
2022-08-05T13:30:34.254Z,100959.03
2022-08-05T13:32:50.616Z,100959.03
2022-08-05T13:35:31.333Z,100967.75
2022-08-05T13:38:04.866Z,100960.84
2022-08-05T13:40:47.977Z,100973.31
2022-08-05T13:43:13.759Z,100972.78
2022-08-05T13:45:45.990Z,100961.06
2022-08-05T13:48:57.792Z,100963.94
2022-08-05T13:50:56.204Z,100968.50
2022-08-05T13:53:20.312Z,100965.00
2022-08-05T13:55:50.104Z,100956.88
2022-08-05T13:58:30.972Z,100949.00
2022-08-05T14:00:54.977Z,100949.94
2022-08-05T14:03:18.693Z,100951.50
2022-08-05T14:06:24.595Z,100950.50
2022-08-05T14:08:27.468Z,100956.44
2022-08-05T14:10:52.101Z,100953.31
2022-08-05T14:13:16.284Z,100950.22
2022-08-05T14:16:08.865Z,100952.75
2022-08-05T14:18:24.183Z,100958.75
2022-08-05T14:20:48.683Z,100955.84
2022-08-05T14:23:12.616Z,100969.06
2022-08-05T14:25:45.100Z,100980.31
2022-08-05T14:28:09.145Z,100974.31
2022-08-05T14:30:49.867Z,100974.44
2022-08-05T14:33:22.872Z,100985.16
2022-08-05T14:35:51.918Z,100987.53
2022-08-05T14:38:32.558Z,100995.81
2022-08-05T14:41:01.129Z,100997.03
2022-08-05T14:43:59.243Z,100997.06
2022-08-05T14:46:08.860Z,101003.63
2022-08-05T14:48:33.756Z,101009.63
2022-08-05T14:50:57.852Z,101019.06
2022-08-05T14:53:21.636Z,101004.28
2022-08-05T14:55:52.091Z,101006.00
2022-08-05T14:58:17.796Z,100995.09
2022-08-05T15:00:59.467Z,100992.84
2022-08-05T15:03:24.011Z,101002.19
2022-08-05T15:06:06.907Z,101001.16
2022-08-05T15:08:37.967Z,100995.72
2022-08-05T15:11:16.058Z,101006.38
2022-08-05T15:13:46.049Z,101001.34
2022-08-05T15:16:14.404Z,101003.06
2022-08-05T15:18:38.630Z,101006.81
2022-08-05T15:21:07.400Z,101011.91
2022-08-05T15:23:31.756Z,101016.91
2022-08-05T15:25:59.724Z,101021.47
2022-08-05T15:28:27.335Z,101032.03
2022-08-05T15:30:53.595Z,101043.69
2022-08-05T15:34:04.126Z,101032.59
2022-08-05T15:36:03.622Z,101037.81
2022-08-05T15:38:34.708Z,101030.78
2022-08-05T15:41:22.322Z,101027.97
2022-08-05T15:43:45.935Z,101028.81
2022-08-05T15:46:12.316Z,101034.94
2022-08-05T15:48:36.779Z,101026.13
2022-08-05T15:51:03.601Z,101040.44
2022-08-05T15:53:38.293Z,101041.25
2022-08-05T15:56:14.417Z,101046.81
2022-08-05T15:58:38.232Z,101047.50
2022-08-05T16:01:11.560Z,101048.03
2022-08-05T16:03:42.678Z,101043.19
2022-08-05T16:06:07.211Z,101050.16
2022-08-05T16:08:35.551Z,101055.28
2022-08-05T16:10:59.552Z,101065.03
2022-08-05T16:13:24.102Z,101076.66
2022-08-05T16:15:58.005Z,101083.84
2022-08-05T16:18:21.792Z,101078.50
2022-08-05T16:20:54.147Z,101090.25
2022-08-05T16:23:17.830Z,101096.84
2022-08-05T16:25:41.647Z,101110.09
2022-08-05T16:28:06.579Z,101117.47
2022-08-05T16:30:34.220Z,101117.09
2022-08-05T16:33:00.567Z,101118.75
2022-08-05T16:35:27.567Z,101124.47
2022-08-05T16:38:15.643Z,101129.03
2022-08-05T16:40:37.722Z,101134.63
2022-08-05T16:43:01.484Z,101137.16
2022-08-05T16:46:03.790Z,101136.97
2022-08-05T16:48:10.884Z,101165.75
2022-08-05T16:50:49.388Z,101164.56
2022-08-05T16:53:22.971Z,101170.25
2022-08-05T16:55:56.381Z,101176.16
2022-08-05T16:58:20.552Z,101167.22
2022-08-05T17:00:44.366Z,101185.94
2022-08-05T17:03:19.798Z,101188.38
2022-08-05T17:05:44.152Z,101180.69
2022-08-05T17:08:16.903Z,101200.81
2022-08-05T17:11:00.416Z,101208.06
2022-08-05T17:13:37.278Z,101212.34
2022-08-05T17:16:28.114Z,101204.22
2022-08-05T17:18:49.911Z,101209.81
2022-08-05T17:21:13.640Z,101232.00
2022-08-05T17:24:04.664Z,101230.75
2022-08-05T17:26:24.697Z,101234.47
2022-08-05T17:28:50.845Z,101239.38
2022-08-05T17:31:24.658Z,101272.47
2022-08-05T17:33:58.466Z,101280.53
2022-08-05T17:36:33.682Z,101286.19
2022-08-05T17:39:01.619Z,101286.75
2022-08-05T17:42:18.901Z,101287.22
2022-08-05T17:44:11.145Z,101282.31
2022-08-05T17:46:35.016Z,101268.34
2022-08-05T17:48:59.238Z,101271.09
2022-08-05T17:51:23.196Z,101274.97
2022-08-05T17:53:54.473Z,101275.66
2022-08-05T17:56:20.016Z,101281.75
2022-08-05T17:58:46.366Z,101286.31
2022-08-05T18:01:10.192Z,101288.09
2022-08-05T18:04:03.785Z,101290.72
2022-08-05T18:06:18.475Z,101292.25
2022-08-05T18:08:53.115Z,101292.13
2022-08-05T18:11:24.550Z,101282.16
2022-08-05T18:13:56.572Z,101298.72
2022-08-05T18:16:23.493Z,101308.03
2022-08-05T18:18:48.070Z,101328.09
2022-08-05T18:21:19.959Z,101324.06
2022-08-05T18:23:45.628Z,101329.81
2022-08-05T18:26:10.733Z,101324.47
2022-08-05T18:28:35.920Z,101330.22
2022-08-05T18:30:59.760Z,101327.94
2022-08-05T18:33:24.332Z,101333.50
2022-08-05T18:35:59.971Z,101336.13
2022-08-05T18:38:27.872Z,101342.09
2022-08-05T18:41:57.226Z,101345.13
2022-08-05T18:43:43.106Z,101348.00
2022-08-05T18:46:12.736Z,101348.94
2022-08-05T18:48:36.779Z,101350.72
2022-08-05T18:52:02.937Z,101350.91
2022-08-05T18:54:07.167Z,101363.34
2022-08-05T18:56:32.684Z,101373.34
2022-08-05T18:59:01.237Z,101372.19
2022-08-05T19:01:33.212Z,101375.59
2022-08-05T19:03:57.515Z,101389.81
2022-08-05T19:06:22.400Z,101390.31
2022-08-05T19:08:58.159Z,101389.72
2022-08-05T19:11:28.532Z,101395.28
2022-08-05T19:14:15.196Z,101403.66
2022-08-05T19:16:47.289Z,101397.25
2022-08-05T19:19:11.144Z,101402.75
2022-08-05T19:21:36.742Z,101410.75
2022-08-05T19:24:07.482Z,101412.16
2022-08-05T19:26:32.976Z,101411.34
2022-08-05T19:28:57.308Z,101417.81
2022-08-05T19:31:22.888Z,101420.34
2022-08-05T19:33:48.550Z,101412.34
2022-08-05T19:36:20.716Z,101412.69
2022-08-05T19:38:45.827Z,101420.34
2022-08-05T19:41:12.331Z,101426.97
2022-08-05T19:44:05.375Z,101438.22
2022-08-05T19:46:29.460Z,101439.44
2022-08-05T19:48:54.568Z,101435.84
2022-08-05T19:52:04.524Z,101444.53
2022-08-05T19:54:12.893Z,101448.41
2022-08-05T19:56:50.821Z,101446.19
2022-08-05T19:59:51.577Z,101451.81
2022-08-05T20:02:01.476Z,101455.25
2022-08-05T20:04:26.579Z,101449.47
2022-08-05T20:06:51.820Z,101454.03
2022-08-05T20:09:15.795Z,101456.00
2022-08-05T20:11:41.303Z,101449.69
2022-08-05T20:14:14.668Z,101458.22
2022-08-05T20:16:42.017Z,101457.59
2022-08-05T20:19:08.652Z,101453.16
2022-08-05T20:21:32.541Z,101461.16
2022-08-05T20:23:57.384Z,101464.41
2022-08-05T20:26:22.091Z,101476.78
2022-08-05T20:28:48.698Z,101476.25
2022-08-05T20:31:12.617Z,101484.09
2022-08-05T20:33:36.390Z,101497.88
2022-08-05T20:36:02.284Z,101503.50
2022-08-05T20:38:27.335Z,101498.38
2022-08-05T20:40:52.592Z,101505.19
2022-08-05T20:43:33.265Z,101505.72
2022-08-05T20:46:03.301Z,101513.53
2022-08-05T20:48:27.012Z,101526.94
2022-08-05T20:50:50.914Z,101527.44
2022-08-05T20:53:36.531Z,101545.97
2022-08-05T20:56:08.838Z,101555.41
2022-08-05T20:58:33.196Z,101558.09
2022-08-05T21:00:57.069Z,101558.94
2022-08-05T21:03:20.921Z,101570.38
2022-08-05T21:05:53.505Z,101558.63
2022-08-05T21:08:20.108Z,101558.47
2022-08-05T21:10:48.990Z,101562.63
2022-08-05T21:13:15.905Z,101568.31
2022-08-05T21:15:40.985Z,101566.66
2022-08-05T21:18:08.340Z,101569.38
2022-08-05T21:20:34.927Z,101572.50
2022-08-05T21:22:59.473Z,101580.34
2022-08-05T21:25:25.420Z,101576.94
2022-08-05T21:27:57.918Z,101586.47
2022-08-05T21:30:22.039Z,101585.25
2022-08-05T21:32:47.756Z,101590.50
2022-08-05T21:35:18.126Z,101587.97
2022-08-05T21:37:53.948Z,101587.59
2022-08-05T21:40:17.712Z,101581.84
2022-08-05T21:42:45.137Z,101588.50
2022-08-05T21:45:10.762Z,101583.22
2022-08-05T21:47:56.125Z,101580.97
2022-08-05T21:50:20.362Z,101574.53
2022-08-05T21:52:47.406Z,101574.81
2022-08-05T21:55:11.695Z,101579.25
2022-08-05T21:57:42.782Z,101578.91
2022-08-05T22:00:12.257Z,101576.53
2022-08-05T22:02:38.984Z,101580.38
2022-08-05T22:05:04.312Z,101588.72
2022-08-05T22:07:39.439Z,101584.97
2022-08-05T22:10:12.353Z,101599.69
2022-08-05T22:12:40.310Z,101601.06
2022-08-05T22:15:16.587Z,101601.78
2022-08-05T22:17:56.324Z,101588.81
2022-08-05T22:20:23.682Z,101583.91
2022-08-05T22:23:16.927Z,101590.53
2022-08-05T22:26:11.366Z,101607.63
2022-08-05T22:28:35.668Z,101607.44
2022-08-05T22:31:05.578Z,101618.75
2022-08-05T22:33:57.050Z,101618.41
2022-08-05T22:36:15.038Z,101621.50
2022-08-05T22:38:39.196Z,101621.06
2022-08-05T22:41:09.550Z,101619.13
2022-08-05T22:43:36.884Z,101618.50
2022-08-05T22:46:08.826Z,101622.38
2022-08-05T22:48:38.016Z,101630.53
2022-08-05T22:51:01.929Z,101633.97
2022-08-05T22:53:35.607Z,101638.16
2022-08-05T22:55:59.906Z,101636.28
2022-08-05T22:58:28.457Z,101642.31
2022-08-05T23:00:52.565Z,101645.75
2022-08-05T23:03:22.251Z,101645.03
2022-08-05T23:06:06.180Z,101650.91
2022-08-05T23:08:30.719Z,101648.72
2022-08-05T23:10:56.073Z,101645.56
2022-08-05T23:13:19.852Z,101659.09
2022-08-05T23:15:43.859Z,101657.47
2022-08-05T23:18:16.076Z,101648.00
2022-08-05T23:20:43.040Z,101647.06
2022-08-05T23:23:09.010Z,101656.88
2022-08-05T23:25:52.568Z,101654.31
2022-08-05T23:28:17.269Z,101657.59
2022-08-05T23:30:43.831Z,101661.47
2022-08-05T23:33:16.335Z,101658.19
2022-08-05T23:35:52.006Z,101653.03
2022-08-05T23:38:19.199Z,101664.19
2022-08-05T23:40:49.843Z,101657.06
2022-08-05T23:43:24.773Z,101665.66
2022-08-05T23:45:58.025Z,101662.75
2022-08-05T23:48:22.419Z,101682.94
2022-08-05T23:50:51.528Z,101683.78
2022-08-05T23:53:22.974Z,101680.94
2022-08-05T23:55:47.056Z,101679.69
2022-08-05T23:58:31.678Z,101685.78
